Time;durP1;ratioP1;P1;durP2;ratioP2;P2;SDS_P1;SDS_P2;PMS_P1;PMS_P2;Temp;Humidity;BMP_temperature;BMP_pressure;BME280_temperature;BME280_humidity;BME280_pressure;Samples;Min_cycle;Max_cycle;Signal;HPM_P1;HPM_P2
2022/12/07 00:01:29;;;;;;;4.45;3.47;;;3.50;99.90;;;;;;4960343;28;88359;-34
2022/12/07 00:04:00;;;;;;;11.90;4.50;;;3.40;99.90;;;;;;4960635;28;89094;-35
2022/12/07 00:06:26;;;;;;;11.60;4.95;;;3.40;99.90;;;;;;4959145;28;90034;-35
2022/12/07 00:08:52;;;;;;;4.80;3.10;;;3.40;99.90;;;;;;4960291;28;90555;-35
2022/12/07 00:11:20;;;;;;;5.35;3.70;;;3.30;99.90;;;;;;4959868;28;89526;-34
2022/12/07 00:13:47;;;;;;;13.98;4.22;;;3.30;99.90;;;;;;4959473;28;90588;-34
2022/12/07 00:16:18;;;;;;;6.60;3.83;;;3.30;99.90;;;;;;4960020;28;89557;-34
2022/12/07 00:18:44;;;;;;;11.75;3.45;;;3.30;99.90;;;;;;4959919;28;90255;-38
2022/12/07 00:21:13;;;;;;;8.68;3.45;;;3.20;99.90;;;;;;4960106;28;88054;-33
2022/12/07 00:23:40;;;;;;;8.02;2.97;;;3.20;99.90;;;;;;4959957;28;92101;-33
2022/12/07 00:26:11;;;;;;;4.43;3.25;;;3.20;99.90;;;;;;4959311;28;89067;-34
2022/12/07 00:28:37;;;;;;;13.32;3.30;;;3.20;99.90;;;;;;4959448;28;90168;-31
2022/12/07 00:31:08;;;;;;;9.25;3.60;;;3.20;99.90;;;;;;4959757;28;89730;-35
2022/12/07 00:33:35;;;;;;;8.15;3.10;;;3.20;99.90;;;;;;4959438;28;91173;-32
2022/12/07 00:36:03;;;;;;;10.95;4.22;;;3.20;99.90;;;;;;4959849;28;89748;-32
2022/12/07 00:38:31;;;;;;;6.22;3.15;;;3.20;99.90;;;;;;4959783;28;89630;-33
2022/12/07 00:41:00;;;;;;;11.82;3.47;;;3.30;99.90;;;;;;4959341;28;88417;-32
2022/12/07 00:43:27;;;;;;;8.90;3.17;;;3.30;99.90;;;;;;4959374;28;90369;-32
2022/12/07 00:45:53;;;;;;;10.40;3.33;;;3.30;99.90;;;;;;4959511;28;89793;-32
2022/12/07 00:48:19;;;;;;;7.57;2.53;;;3.40;99.90;;;;;;4959957;28;90715;-35
2022/12/07 00:50:45;;;;;;;12.75;2.63;;;3.40;99.90;;;;;;4960207;28;90199;-34
2022/12/07 00:53:11;;;;;;;7.32;2.97;;;3.40;99.90;;;;;;4959246;28;90276;-32
2022/12/07 00:55:36;;;;;;;8.65;2.25;;;3.40;99.90;;;;;;4958959;28;90582;-32
2022/12/07 00:58:03;;;;;;;6.25;2.55;;;3.30;99.90;;;;;;4959858;28;88419;-32
2022/12/07 01:00:29;;;;;;;6.57;2.40;;;3.30;99.90;;;;;;4959404;28;88707;-32
2022/12/07 01:02:55;;;;;;;9.43;3.28;;;3.30;99.90;;;;;;4959599;28;91003;-35
2022/12/07 01:05:20;;;;;;;11.98;2.80;;;3.30;99.90;;;;;;4958903;28;88744;-34
2022/12/07 01:07:46;;;;;;;9.40;2.58;;;3.20;99.90;;;;;;4959132;28;89890;-32
2022/12/07 01:10:13;;;;;;;6.10;2.55;;;3.20;99.90;;;;;;4959174;28;89052;-33
2022/12/07 01:12:39;;;;;;;8.93;2.90;;;3.10;99.90;;;;;;4959570;28;89858;-35
2022/12/07 01:15:05;;;;;;;3.58;2.40;;;3.10;99.90;;;;;;4959686;28;89868;-32
2022/12/07 01:17:31;;;;;;;9.48;2.90;;;3.10;99.90;;;;;;4958637;28;89724;-32
2022/12/07 01:19:56;;;;;;;6.47;2.70;;;3.00;99.90;;;;;;4959158;28;87967;-34
2022/12/07 01:22:22;;;;;;;5.85;2.92;;;3.00;99.90;;;;;;4959334;28;90261;-34
2022/12/07 01:24:48;;;;;;;5.30;2.42;;;3.00;99.90;;;;;;4959025;28;89782;-35
2022/12/07 01:27:14;;;;;;;9.35;3.13;;;3.00;99.90;;;;;;4959340;28;89668;-31
2022/12/07 01:29:40;;;;;;;5.95;2.33;;;3.00;99.90;;;;;;4958951;28;88795;-31
2022/12/07 01:32:05;;;;;;;14.20;3.45;;;3.00;99.90;;;;;;4959284;28;89930;-32
2022/12/07 01:34:31;;;;;;;8.93;2.60;;;3.00;99.90;;;;;;4958597;28;89533;-31
2022/12/07 01:36:57;;;;;;;11.18;2.83;;;2.90;99.90;;;;;;4959545;28;89109;-30
2022/12/07 01:39:23;;;;;;;4.88;2.42;;;2.90;99.90;;;;;;4958729;28;90397;-31
2022/12/07 01:41:48;;;;;;;6.63;1.88;;;2.90;99.90;;;;;;4958778;28;89367;-33
2022/12/07 01:44:25;;;;;;;4.68;2.20;;;2.90;99.90;;;;;;4958494;28;91118;-32
2022/12/07 01:46:52;;;;;;;9.27;2.85;;;2.90;99.90;;;;;;4958884;28;92080;-31
2022/12/07 01:49:33;;;;;;;6.82;2.10;;;2.90;99.90;;;;;;4959353;28;88077;-31
2022/12/07 01:52:13;;;;;;;10.70;2.22;;;2.90;99.90;;;;;;4961907;28;90330;-30
2022/12/07 01:54:39;;;;;;;5.93;2.65;;;2.90;99.90;;;;;;4962000;28;89741;-30
2022/12/07 01:57:06;;;;;;;7.20;2.30;;;2.90;99.90;;;;;;4962117;28;88969;-31
2022/12/07 01:59:32;;;;;;;9.32;2.65;;;2.90;99.90;;;;;;4962756;28;90399;-31
2022/12/07 02:01:57;;;;;;;8.48;2.45;;;2.90;99.90;;;;;;4961968;28;90200;-33
2022/12/07 02:04:24;;;;;;;6.25;2.00;;;2.90;99.90;;;;;;4962067;28;88461;-33
2022/12/07 02:06:51;;;;;;;13.23;2.65;;;2.90;99.90;;;;;;4961834;28;89994;-32
2022/12/07 02:09:17;;;;;;;11.65;2.78;;;2.90;99.90;;;;;;4961612;28;89948;-30
2022/12/07 02:11:42;;;;;;;10.02;2.55;;;2.90;99.90;;;;;;4961514;28;90000;-33
2022/12/07 02:14:08;;;;;;;9.27;2.55;;;2.90;99.90;;;;;;4961833;28;89175;-30
2022/12/07 02:16:45;;;;;;;6.45;2.13;;;2.90;99.90;;;;;;4961696;28;89888;-33
2022/12/07 02:19:29;;;;;;;8.98;2.45;;;2.80;99.90;;;;;;4962094;28;88061;-33
2022/12/07 02:22:30;;;;;;;6.70;2.05;;;2.80;99.90;;;;;;4960921;28;90447;-29
2022/12/07 02:25:32;;;;;;;8.40;1.73;;;2.80;99.90;;;;;;4941550;28;89836;-29
2022/12/07 02:28:17;;;;;;;9.95;2.65;;;2.80;99.90;;;;;;4959932;28;89710;-33
2022/12/07 02:30:47;;;;;;;9.35;2.50;;;2.80;99.90;;;;;;4961476;28;88065;-31
2022/12/07 02:33:31;;;;;;;12.77;2.42;;;2.80;99.90;;;;;;4961329;28;89576;-31
2022/12/07 02:36:25;;;;;;;4.25;1.70;;;2.80;99.90;;;;;;4960775;28;90673;-31
2022/12/07 02:39:11;;;;;;;3.90;1.67;;;2.90;99.90;;;;;;4959020;28;90390;-31
2022/12/07 02:41:46;;;;;;;7.38;2.10;;;2.90;99.90;;;;;;4961575;28;89177;-31
2022/12/07 02:44:17;;;;;;;8.68;2.10;;;2.80;99.90;;;;;;4960681;28;92584;-32
2022/12/07 02:46:54;;;;;;;3.60;1.60;;;2.80;99.90;;;;;;4961530;28;90158;-32
2022/12/07 02:49:23;;;;;;;3.85;2.08;;;2.80;99.90;;;;;;4960928;28;89977;-30
2022/12/07 02:51:49;;;;;;;3.72;1.33;;;2.80;99.90;;;;;;4959779;28;87660;-31
2022/12/07 02:54:17;;;;;;;7.10;2.05;;;2.80;99.90;;;;;;4961219;28;89922;-31
2022/12/07 02:56:51;;;;;;;4.65;1.75;;;2.80;99.90;;;;;;4961470;28;89228;-31
2022/12/07 02:59:29;;;;;;;4.68;1.63;;;2.70;99.90;;;;;;4960758;28;89396;-29
2022/12/07 03:02:26;;;;;;;3.53;1.67;;;2.70;99.90;;;;;;4959799;28;90025;-33
2022/12/07 03:05:03;;;;;;;4.77;1.43;;;2.70;99.90;;;;;;4945996;28;89313;-32
2022/12/07 03:07:47;;;;;;;3.47;1.30;;;2.70;99.90;;;;;;4960899;28;89699;-32
2022/12/07 03:10:40;;;;;;;6.53;1.92;;;2.70;99.90;;;;;;4960771;28;88625;-30
2022/12/07 03:13:14;;;;;;;6.72;1.50;;;2.70;99.90;;;;;;4961562;28;88677;-32
2022/12/07 03:15:48;;;;;;;3.28;1.50;;;2.80;99.90;;;;;;4961063;28;90177;-30
2022/12/07 03:18:17;;;;;;;12.18;2.10;;;2.80;99.90;;;;;;4960853;28;89785;-32
2022/12/07 03:20:46;;;;;;;4.93;1.70;;;2.80;99.90;;;;;;4961094;28;88317;-31
2022/12/07 03:23:13;;;;;;;4.47;1.42;;;2.90;99.90;;;;;;4961533;28;89228;-30
2022/12/07 03:25:43;;;;;;;7.55;1.88;;;2.90;99.90;;;;;;4960452;28;90385;-32
2022/12/07 03:28:11;;;;;;;9.95;1.92;;;3.00;99.90;;;;;;4960483;28;90516;-32
2022/12/07 03:30:48;;;;;;;4.55;1.65;;;3.00;99.90;;;;;;4960324;28;89858;-30
2022/12/07 03:33:42;;;;;;;4.07;1.67;;;3.10;99.90;;;;;;4960692;28;88697;-31
2022/12/07 03:36:30;;;;;;;5.30;2.03;;;3.20;99.90;;;;;;4961127;28;90049;-31
2022/12/07 03:39:07;;;;;;;7.35;1.92;;;3.30;99.90;;;;;;4961139;28;89824;-30
2022/12/07 03:41:36;;;;;;;5.57;1.98;;;3.20;99.90;;;;;;4960388;28;89502;-30
2022/12/07 03:44:01;;;;;;;4.20;1.67;;;3.20;99.90;;;;;;4961171;28;89412;-31
2022/12/07 03:46:35;;;;;;;4.35;1.65;;;3.20;99.90;;;;;;4960298;28;90320;-29
2022/12/07 03:49:07;;;;;;;1.88;1.40;;;3.20;99.90;;;;;;4960437;28;89550;-31
2022/12/07 03:51:45;;;;;;;6.95;1.70;;;3.20;99.90;;;;;;4960366;28;89022;-31
2022/12/07 03:54:18;;;;;;;6.28;1.65;;;3.20;99.90;;;;;;4960495;28;90530;-33
2022/12/07 03:56:45;;;;;;;7.07;2.22;;;3.20;99.90;;;;;;4960445;28;90292;-30
2022/12/07 03:59:12;;;;;;;8.88;1.40;;;3.10;99.90;;;;;;4959750;28;90393;-28
2022/12/07 04:01:38;;;;;;;6.30;1.57;;;3.10;99.90;;;;;;4959531;28;89281;-31
2022/12/07 04:04:03;;;;;;;3.47;1.50;;;3.20;99.90;;;;;;4961006;28;89717;-30
2022/12/07 04:06:29;;;;;;;4.97;1.70;;;3.20;99.90;;;;;;4960109;28;90010;-30
2022/12/07 04:08:55;;;;;;;5.53;1.33;;;3.20;99.90;;;;;;4960424;28;89657;-31
2022/12/07 04:11:20;;;;;;;4.13;1.67;;;3.20;99.90;;;;;;4960088;28;89441;-31
2022/12/07 04:16:30;;;;;;;3.55;1.42;;;3.20;99.90;;;;;;4959503;28;90579;-30
2022/12/07 04:18:55;;;;;;;8.07;2.05;;;3.20;99.90;;;;;;4959527;28;90495;-31
2022/12/07 04:21:21;;;;;;;10.32;2.95;;;3.20;99.90;;;;;;4959154;28;89370;-30
2022/12/07 04:23:47;;;;;;;5.55;2.05;;;3.30;99.90;;;;;;4959816;28;87718;-31
2022/12/07 04:26:12;;;;;;;6.40;1.50;;;3.30;99.90;;;;;;4959882;28;89914;-32
2022/12/07 04:28:38;;;;;;;4.85;1.83;;;3.30;99.90;;;;;;4959433;28;89910;-31
2022/12/07 04:31:03;;;;;;;7.95;1.40;;;3.30;99.90;;;;;;4959295;28;89910;-31
2022/12/07 04:33:29;;;;;;;3.95;1.35;;;3.20;99.90;;;;;;4959632;28;87552;-31
2022/12/07 04:35:55;;;;;;;4.75;1.60;;;3.20;99.90;;;;;;4959822;28;90367;-32
2022/12/07 04:38:20;;;;;;;6.32;1.30;;;3.10;99.90;;;;;;4959755;28;89769;-31
2022/12/07 04:40:46;;;;;;;4.78;1.70;;;3.10;99.90;;;;;;4958907;28;91377;-31
2022/12/07 04:43:11;;;;;;;5.65;1.45;;;3.00;99.90;;;;;;4960069;28;89848;-30
2022/12/07 04:45:37;;;;;;;7.43;1.98;;;2.90;99.90;;;;;;4959354;28;90342;-31
2022/12/07 04:48:03;;;;;;;11.88;2.67;;;2.90;99.90;;;;;;4959090;28;90033;-31
2022/12/07 04:50:28;;;;;;;6.75;1.85;;;2.80;99.90;;;;;;4959100;28;89720;-32
2022/12/07 04:52:54;;;;;;;9.20;1.80;;;2.80;99.90;;;;;;4959287;28;88932;-32
2022/12/07 04:55:19;;;;;;;13.43;2.05;;;2.70;99.90;;;;;;4960083;28;90402;-31
2022/12/07 04:57:45;;;;;;;4.70;1.67;;;2.70;99.90;;;;;;4959099;28;91264;-31
2022/12/07 05:00:12;;;;;;;5.38;1.70;;;2.70;99.90;;;;;;4959449;28;89141;-33
2022/12/07 05:02:38;;;;;;;8.10;1.80;;;2.70;99.90;;;;;;4959340;28;88907;-31
2022/12/07 05:05:04;;;;;;;3.72;1.73;;;2.60;99.90;;;;;;4958932;28;91133;-30
2022/12/07 05:07:29;;;;;;;9.60;1.70;;;2.60;99.90;;;;;;4959465;28;90273;-30
2022/12/07 05:09:55;;;;;;;8.18;2.08;;;2.50;99.90;;;;;;4945901;28;90261;-31
2022/12/07 05:12:20;;;;;;;6.65;2.38;;;2.50;99.90;;;;;;4959544;28;90100;-31
2022/12/07 05:14:46;;;;;;;6.78;2.45;;;2.50;99.90;;;;;;4958766;28;90040;-32
2022/12/07 05:17:11;;;;;;;7.07;2.30;;;2.50;99.90;;;;;;4958934;28;90186;-31
2022/12/07 05:19:37;;;;;;;5.93;2.28;;;2.50;99.90;;;;;;4959337;28;88596;-31
2022/12/07 05:22:03;;;;;;;5.60;1.63;;;2.50;99.90;;;;;;4958840;28;87825;-31
2022/12/07 05:24:28;;;;;;;8.50;1.85;;;2.50;99.90;;;;;;4960276;28;89988;-30
2022/12/07 05:26:54;;;;;;;5.60;2.00;;;2.50;99.90;;;;;;4961889;28;89756;-32
2022/12/07 05:29:19;;;;;;;5.43;1.80;;;2.50;99.90;;;;;;4962581;28;89348;-32
2022/12/07 05:31:45;;;;;;;5.72;1.50;;;2.60;99.90;;;;;;4962332;28;89217;-30
2022/12/07 05:34:11;;;;;;;8.48;2.42;;;2.50;99.90;;;;;;4962803;28;90111;-30
2022/12/07 05:36:36;;;;;;;8.10;1.88;;;2.60;99.90;;;;;;4962376;28;89311;-31
2022/12/07 05:39:03;;;;;;;7.50;2.70;;;2.60;99.90;;;;;;4961836;28;89438;-30
2022/12/07 05:44:12;;;;;;;8.55;2.00;;;2.70;99.90;;;;;;4962555;28;90359;-30
2022/12/07 05:46:38;;;;;;;3.92;1.83;;;2.70;99.90;;;;;;4961743;28;89437;-33
2022/12/07 05:49:04;;;;;;;3.47;1.52;;;2.70;99.90;;;;;;4963110;28;89677;-30
2022/12/07 05:51:29;;;;;;;10.95;1.58;;;2.60;99.90;;;;;;4961956;28;89263;-31
2022/12/07 05:53:55;;;;;;;6.93;1.67;;;2.60;99.90;;;;;;4961739;28;90256;-33
2022/12/07 05:56:21;;;;;;;5.45;1.73;;;2.60;99.90;;;;;;4960793;28;90206;-33
2022/12/07 06:01:31;;;;;;;7.53;1.50;;;2.50;99.90;;;;;;4962147;28;87573;-31
2022/12/07 06:03:56;;;;;;;5.80;1.30;;;2.50;99.90;;;;;;4961780;28;90246;-30
2022/12/07 06:06:22;;;;;;;13.38;2.05;;;2.50;99.90;;;;;;4961938;28;89566;-32
2022/12/07 06:08:47;;;;;;;15.07;2.17;;;2.40;99.90;;;;;;4961513;28;89224;-32
2022/12/07 06:13:57;;;;;;;8.68;2.22;;;2.30;99.90;;;;;;4961932;28;90573;-30
2022/12/07 06:16:23;;;;;;;3.15;1.45;;;2.30;99.90;;;;;;4961444;28;89461;-35
2022/12/07 06:18:49;;;;;;;12.43;2.45;;;2.30;99.90;;;;;;4962007;28;89739;-31
2022/12/07 06:21:14;;;;;;;13.23;3.00;;;2.20;99.90;;;;;;4960539;28;89058;-32
2022/12/07 06:23:40;;;;;;;5.85;2.33;;;2.20;99.90;;;;;;4961989;28;90075;-30
2022/12/07 06:26:05;;;;;;;8.90;2.25;;;2.20;99.90;;;;;;4961261;28;89714;-33
2022/12/07 06:28:31;;;;;;;3.40;2.08;;;2.20;99.90;;;;;;4960977;28;89355;-31
2022/12/07 06:30:58;;;;;;;3.92;2.35;;;2.20;99.90;;;;;;4961582;28;88217;-30
2022/12/07 06:33:24;;;;;;;4.78;1.88;;;2.30;99.90;;;;;;4960939;28;89689;-30
2022/12/07 06:35:50;;;;;;;7.03;2.25;;;2.30;99.90;;;;;;4961278;28;88516;-33
2022/12/07 06:38:15;;;;;;;6.07;2.60;;;2.30;99.90;;;;;;4959990;28;89611;-31
2022/12/07 06:40:41;;;;;;;8.63;2.50;;;2.30;99.90;;;;;;4961176;28;88072;-33
2022/12/07 06:43:06;;;;;;;6.63;2.28;;;2.30;99.90;;;;;;4961028;28;90091;-32
2022/12/07 06:45:32;;;;;;;6.15;2.17;;;2.30;99.90;;;;;;4960474;28;90973;-34
2022/12/07 06:47:57;;;;;;;3.97;1.83;;;2.30;99.90;;;;;;4961667;28;90835;-30
2022/12/07 06:50:23;;;;;;;5.72;2.10;;;2.30;99.90;;;;;;4961416;28;89483;-36
2022/12/07 06:52:50;;;;;;;10.30;1.52;;;2.30;99.90;;;;;;4961063;28;90377;-31
2022/12/07 06:55:16;;;;;;;5.68;2.65;;;2.30;99.90;;;;;;4961040;28;90035;-32
2022/12/07 06:57:41;;;;;;;17.60;3.08;;;2.30;99.90;;;;;;4960445;28;89557;-30
2022/12/07 07:00:07;;;;;;;8.18;2.22;;;2.30;99.90;;;;;;4962089;28;89920;-31
2022/12/07 07:02:33;;;;;;;3.92;2.10;;;2.30;99.90;;;;;;4960247;28;90718;-31
2022/12/07 07:04:58;;;;;;;14.93;2.80;;;2.30;99.90;;;;;;4960764;28;89573;-31
2022/12/07 07:07:24;;;;;;;9.43;2.28;;;2.30;99.90;;;;;;4960131;28;89252;-30
2022/12/07 07:09:50;;;;;;;5.40;2.03;;;2.40;99.90;;;;;;4960518;28;90408;-34
2022/12/07 07:12:15;;;;;;;8.40;2.67;;;2.40;99.90;;;;;;4960923;28;90163;-31
2022/12/07 07:14:41;;;;;;;4.57;1.98;;;2.40;99.90;;;;;;4960312;28;89717;-34
2022/12/07 07:17:07;;;;;;;7.18;1.85;;;2.50;99.90;;;;;;4960845;28;89312;-33
2022/12/07 07:19:33;;;;;;;10.38;2.17;;;2.50;99.90;;;;;;4960345;28;87946;-30
2022/12/07 07:21:58;;;;;;;13.77;2.83;;;2.50;99.90;;;;;;4960779;28;90258;-31
2022/12/07 07:24:24;;;;;;;11.20;2.17;;;2.50;99.90;;;;;;4960814;28;90838;-34
2022/12/07 07:26:49;;;;;;;5.18;1.50;;;2.50;99.90;;;;;;4960629;28;89943;-30
2022/12/07 07:29:15;;;;;;;7.18;1.70;;;2.50;99.90;;;;;;4961182;28;88331;-31
2022/12/07 07:31:40;;;;;;;4.32;2.17;;;2.50;99.90;;;;;;4959587;28;90108;-31
2022/12/07 07:34:06;;;;;;;3.65;2.13;;;2.60;99.90;;;;;;4960054;28;90760;-34
2022/12/07 07:36:32;;;;;;;14.30;2.70;;;2.60;99.90;;;;;;4960184;28;90472;-31
2022/12/07 07:38:58;;;;;;;8.88;2.88;;;2.60;99.90;;;;;;4960739;28;87896;-34
2022/12/07 07:41:23;;;;;;;3.42;1.65;;;2.60;99.90;;;;;;4960335;28;89561;-33
2022/12/07 07:43:49;;;;;;;10.77;2.13;;;2.60;99.90;;;;;;4960243;28;89900;-34
2022/12/07 07:46:15;;;;;;;5.22;2.25;;;2.60;99.90;;;;;;4960707;28;89647;-31
2022/12/07 07:48:40;;;;;;;5.00;2.33;;;2.60;99.90;;;;;;4959333;28;90162;-32
2022/12/07 07:51:07;;;;;;;5.65;2.30;;;2.60;99.90;;;;;;4961489;28;90670;-33
2022/12/07 07:53:32;;;;;;;4.95;1.92;;;2.60;99.90;;;;;;4959736;28;91478;-33
2022/12/07 07:55:58;;;;;;;3.53;1.90;;;2.50;99.90;;;;;;4960301;28;89111;-33
2022/12/07 07:58:24;;;;;;;12.40;2.33;;;2.50;99.90;;;;;;4959831;28;88277;-34
2022/12/07 08:00:49;;;;;;;7.05;2.17;;;2.50;99.90;;;;;;4959648;28;90338;-31
2022/12/07 08:03:15;;;;;;;4.07;2.15;;;2.60;99.90;;;;;;4960838;28;89411;-32
2022/12/07 08:05:41;;;;;;;5.20;1.88;;;2.60;99.90;;;;;;4959461;28;90625;-31
2022/12/07 08:08:07;;;;;;;3.83;1.92;;;2.70;99.90;;;;;;4959942;28;89301;-32
2022/12/07 08:10:34;;;;;;;8.68;2.63;;;2.80;99.90;;;;;;4964435;28;90145;-31
2022/12/07 08:13:13;;;;;;;5.47;1.73;;;2.80;99.90;;;;;;4965237;28;89371;-33
2022/12/07 08:15:40;;;;;;;2.35;1.45;;;2.90;99.90;;;;;;4959091;28;89431;-32
2022/12/07 08:18:06;;;;;;;7.82;2.20;;;3.00;99.90;;;;;;4959874;28;88803;-33
2022/12/07 08:20:33;;;;;;;7.28;2.28;;;2.90;99.90;;;;;;4964087;28;90689;-31
2022/12/07 08:22:59;;;;;;;9.75;2.25;;;2.90;99.90;;;;;;4962417;28;90534;-32
2022/12/07 08:25:24;;;;;;;4.15;1.48;;;2.90;99.90;;;;;;4958757;28;89983;-33
2022/12/07 08:27:51;;;;;;;10.85;2.83;;;2.80;99.90;;;;;;4972628;28;89108;-33
2022/12/07 08:30:17;;;;;;;3.22;1.40;;;2.80;99.90;;;;;;4977904;28;90417;-31
2022/12/07 08:32:44;;;;;;;4.63;1.40;;;2.80;99.90;;;;;;4975181;28;90346;-31
2022/12/07 08:35:10;;;;;;;5.07;1.70;;;2.70;99.90;;;;;;4965269;28;91065;-32
2022/12/07 08:37:36;;;;;;;13.98;2.33;;;2.70;99.90;;;;;;4966164;28;87644;-31
2022/12/07 08:40:03;;;;;;;4.03;2.22;;;2.70;99.90;;;;;;4969933;28;90266;-33
2022/12/07 08:42:37;;;;;;;6.75;2.47;;;2.70;99.90;;;;;;4964329;28;92387;-33
2022/12/07 08:45:07;;;;;;;6.05;1.58;;;2.80;99.90;;;;;;4969884;28;90140;-34
2022/12/07 08:47:35;;;;;;;5.68;1.60;;;2.80;99.90;;;;;;4964335;28;90127;-34
2022/12/07 08:50:03;;;;;;;11.85;2.83;;;2.90;99.90;;;;;;4970770;28;90207;-29
2022/12/07 08:52:33;;;;;;;8.10;1.92;;;2.90;99.90;;;;;;4964665;28;89238;-31
2022/12/07 08:55:00;;;;;;;6.93;2.00;;;2.90;99.90;;;;;;4969953;28;89899;-31
2022/12/07 08:57:27;;;;;;;9.90;2.80;;;3.00;99.90;;;;;;4965508;28;89644;-30
2022/12/07 08:59:53;;;;;;;6.53;2.25;;;3.10;99.90;;;;;;4966931;28;90283;-34
2022/12/07 09:02:18;;;;;;;3.70;2.05;;;3.10;99.90;;;;;;4963687;28;89907;-34
2022/12/07 09:04:44;;;;;;;6.35;2.28;;;3.20;99.90;;;;;;4963893;28;89611;-31
2022/12/07 09:07:10;;;;;;;9.13;2.33;;;3.30;99.90;;;;;;4966898;28;88758;-32
2022/12/07 09:09:35;;;;;;;8.65;2.13;;;3.50;99.90;;;;;;4966219;28;89907;-32
2022/12/07 09:12:01;;;;;;;4.70;2.47;;;3.70;99.90;;;;;;4962475;28;90510;-32
2022/12/07 09:14:27;;;;;;;7.22;2.28;;;3.80;99.90;;;;;;4962886;28;90280;-32
2022/12/07 09:16:52;;;;;;;2.83;2.03;;;4.00;99.90;;;;;;4962331;28;88361;-31
2022/12/07 09:19:18;;;;;;;10.43;2.85;;;4.20;99.90;;;;;;4962549;28;90369;-33
2022/12/07 09:21:43;;;;;;;6.47;2.63;;;4.30;99.90;;;;;;4994828;22;89326;-33
2022/12/07 09:24:09;;;;;;;6.22;2.10;;;4.40;99.90;;;;;;4957657;28;89433;-31
2022/12/07 09:26:35;;;;;;;15.35;2.97;;;4.30;99.90;;;;;;4960801;28;89574;-31
2022/12/07 09:29:02;;;;;;;6.82;2.13;;;4.20;99.90;;;;;;4963867;28;89929;-30
2022/12/07 09:31:28;;;;;;;6.97;2.42;;;4.10;99.90;;;;;;4967110;28;90169;-31
2022/12/07 09:33:59;;;;;;;6.93;2.55;;;4.00;99.90;;;;;;4964831;28;89367;-32
2022/12/07 09:36:26;;;;;;;8.43;2.35;;;4.00;99.90;;;;;;4969192;28;88682;-32
2022/12/07 09:38:51;;;;;;;5.18;2.65;;;4.10;99.90;;;;;;4965786;28;90368;-31
2022/12/07 09:41:18;;;;;;;2.60;1.83;;;4.20;99.90;;;;;;4967141;28;89739;-33
2022/12/07 09:43:45;;;;;;;11.20;2.65;;;4.30;99.90;;;;;;4967573;28;88970;-32
2022/12/07 09:46:15;;;;;;;3.13;2.00;;;4.30;99.90;;;;;;4966163;28;89344;-32
2022/12/07 09:48:42;;;;;;;9.00;2.88;;;4.30;99.90;;;;;;4968532;28;90298;-32
2022/12/07 09:51:17;;;;;;;5.40;2.43;;;4.30;99.90;;;;;;4966330;28;89910;-31
2022/12/07 09:53:44;;;;;;;4.68;2.47;;;4.30;99.90;;;;;;4969384;28;88860;-30
2022/12/07 09:56:15;;;;;;;9.50;2.45;;;4.30;99.90;;;;;;4958701;28;90999;-31
2022/12/07 09:58:42;;;;;;;8.80;2.90;;;4.30;99.90;;;;;;4968970;28;91120;-31
2022/12/07 10:01:08;;;;;;;9.25;3.45;;;4.30;99.90;;;;;;4947720;28;90710;-31
2022/12/07 10:03:37;;;;;;;11.98;2.53;;;4.30;99.90;;;;;;4961714;28;91013;-33
2022/12/07 10:06:04;;;;;;;6.55;2.70;;;4.30;99.90;;;;;;4962162;28;88831;-30
2022/12/07 10:08:29;;;;;;;8.50;2.58;;;4.30;99.90;;;;;;4961154;28;90369;-34
2022/12/07 10:10:56;;;;;;;5.72;2.10;;;4.30;99.90;;;;;;4962046;28;89987;-32
2022/12/07 10:13:35;;;;;;;8.50;2.67;;;4.40;99.90;;;;;;4962038;28;89256;-30
2022/12/07 10:16:00;;;;;;;9.65;2.47;;;4.40;99.90;;;;;;4962719;28;90058;-35
2022/12/07 10:18:33;;;;;;;6.63;2.78;;;4.50;99.90;;;;;;4961529;28;90191;-31
2022/12/07 10:21:08;;;;;;;6.78;3.50;;;4.50;99.90;;;;;;4961945;28;90618;-31
2022/12/07 10:23:35;;;;;;;7.25;2.78;;;4.60;99.90;;;;;;4960593;28;89731;-32
2022/12/07 10:26:49;;;;;;;6.57;3.15;;;4.60;99.90;;;;;;4962361;28;89425;-32
2022/12/07 10:29:19;;;;;;;8.15;3.17;;;4.60;99.90;;;;;;4945180;28;90283;-33
2022/12/07 10:31:48;;;;;;;14.15;2.67;;;4.60;99.90;;;;;;4959290;28;91710;-33
2022/12/07 10:34:24;;;;;;;6.93;2.30;;;4.70;99.90;;;;;;4961810;28;90254;-31
2022/12/07 10:36:51;;;;;;;6.90;2.88;;;4.80;99.90;;;;;;4961862;28;89272;-30
2022/12/07 10:39:22;;;;;;;6.20;2.63;;;4.80;99.90;;;;;;4961629;28;90357;-34
2022/12/07 10:41:56;;;;;;;11.63;3.58;;;4.80;99.90;;;;;;4960919;28;89215;-34
2022/12/07 10:44:25;;;;;;;10.77;3.03;;;4.80;99.90;;;;;;4962362;28;88863;-31
2022/12/07 10:47:11;;;;;;;12.13;3.05;;;4.70;99.90;;;;;;4961459;28;88719;-31
2022/12/07 10:50:04;;;;;;;9.48;3.05;;;4.70;99.90;;;;;;4961509;28;90575;-33
2022/12/07 10:52:55;;;;;;;5.45;2.95;;;4.70;99.90;;;;;;4960939;28;90680;-33
2022/12/07 10:55:25;;;;;;;4.80;2.45;;;4.70;99.90;;;;;;4960839;28;90666;-32
2022/12/07 10:57:51;;;;;;;7.47;2.05;;;4.70;99.90;;;;;;4961004;28;88757;-30
2022/12/07 11:00:25;;;;;;;10.48;4.95;;;4.70;99.90;;;;;;4951520;28;90689;-31
2022/12/07 11:03:13;;;;;;;9.25;2.60;;;4.70;99.90;;;;;;4958695;28;89395;-30
2022/12/07 11:05:59;;;;;;;13.18;2.28;;;4.70;99.90;;;;;;4960681;28;89378;-32
2022/12/07 11:08:43;;;;;;;8.27;2.65;;;4.70;99.90;;;;;;4949036;28;89178;-32
2022/12/07 11:11:12;;;;;;;3.30;1.38;;;4.70;99.90;;;;;;4961688;28;89709;-31
2022/12/07 11:13:49;;;;;;;2.88;1.42;;;4.70;99.90;;;;;;4961052;28;89570;-32
2022/12/07 11:16:18;;;;;;;6.40;1.77;;;4.70;99.90;;;;;;4961019;28;89651;-31
2022/12/07 11:18:50;;;;;;;6.30;1.90;;;4.70;99.90;;;;;;4960405;28;89152;-32
2022/12/07 11:21:30;;;;;;;8.05;2.13;;;4.70;99.90;;;;;;4959891;28;90170;-31
2022/12/07 11:24:09;;;;;;;10.10;2.90;;;4.70;99.90;;;;;;4960271;28;89964;-31
2022/12/07 11:26:54;;;;;;;11.65;2.95;;;4.80;99.90;;;;;;4961149;28;89521;-31
2022/12/07 11:29:50;;;;;;;10.40;2.35;;;4.80;99.90;;;;;;4960707;28;89960;-33
2022/12/07 11:32:34;;;;;;;5.10;2.38;;;4.80;99.90;;;;;;4961102;28;90186;-34
2022/12/07 11:35:25;;;;;;;5.03;2.33;;;4.80;99.90;;;;;;4960929;28;89956;-31
2022/12/07 11:37:58;;;;;;;3.85;1.80;;;4.80;99.90;;;;;;4961184;28;89300;-32
2022/12/07 11:40:33;;;;;;;5.38;2.60;;;4.90;99.90;;;;;;4959686;28;88356;-35
2022/12/07 11:43:20;;;;;;;6.55;2.45;;;4.90;99.90;;;;;;4961357;28;89530;-31
2022/12/07 11:46:09;;;;;;;5.43;2.40;;;4.90;99.90;;;;;;4960538;28;92526;-31
2022/12/07 11:48:41;;;;;;;4.25;2.45;;;4.90;99.90;;;;;;4960777;28;90344;-31
2022/12/07 11:51:11;;;;;;;2.90;1.88;;;4.90;99.90;;;;;;4961553;28;89297;-31
2022/12/07 11:54:01;;;;;;;4.38;2.75;;;4.90;99.90;;;;;;4960352;28;90506;-32
2022/12/07 11:56:28;;;;;;;7.30;2.53;;;4.90;99.90;;;;;;4959873;28;89285;-31
2022/12/07 11:59:04;;;;;;;5.13;2.05;;;4.90;99.90;;;;;;4960738;28;89153;-31
2022/12/07 12:01:50;;;;;;;4.05;2.28;;;4.90;99.90;;;;;;4960567;28;89532;-32
2022/12/07 12:04:35;;;;;;;5.32;2.40;;;4.90;99.90;;;;;;4959387;28;88966;-31
2022/12/07 12:07:01;;;;;;;4.72;2.15;;;4.80;99.90;;;;;;4960654;28;90024;-32
2022/12/07 12:09:35;;;;;;;4.22;2.50;;;4.80;99.90;;;;;;4959706;28;89855;-31
2022/12/07 12:12:31;;;;;;;5.00;2.17;;;4.70;99.90;;;;;;4960530;28;89281;-31
2022/12/07 12:15:00;;;;;;;8.88;2.30;;;4.60;99.90;;;;;;4960357;28;90301;-33
2022/12/07 12:17:31;;;;;;;;;;;4.70;99.90;;;;;;4960182;28;89896;-32
2022/12/07 12:20:21;;;;;;;5.78;2.20;;;4.70;99.90;;;;;;4961762;28;88684;-30
2022/12/07 12:23:25;;;;;;;7.43;2.78;;;4.70;99.90;;;;;;4959355;28;88986;-31
2022/12/07 12:25:58;;;;;;;7.13;1.80;;;4.60;99.90;;;;;;4960358;28;90449;-32
2022/12/07 12:28:26;;;;;;;7.25;2.38;;;4.60;99.90;;;;;;4959118;28;89032;-34
2022/12/07 12:31:36;;;;;;;12.30;2.40;;;4.60;99.90;;;;;;4959833;28;90089;-33
2022/12/07 12:34:04;;;;;;;3.33;1.98;;;4.70;99.90;;;;;;4939328;28;88819;-31
2022/12/07 12:36:39;;;;;;;;;;;4.80;99.90;;;;;;4960335;28;90367;-32
2022/12/07 12:39:10;;;;;;;6.30;2.03;;;4.90;99.90;;;;;;4961077;28;90388;-31
2022/12/07 12:44:19;;;;;;;9.90;2.20;;;4.90;99.90;;;;;;4960241;28;88631;-33
2022/12/07 12:46:57;;;;;;;9.32;2.20;;;5.00;99.90;;;;;;4959819;28;89764;-34
2022/12/07 12:49:22;;;;;;;5.00;2.40;;;5.00;99.90;;;;;;4960087;28;89411;-31
2022/12/07 12:51:50;;;;;;;4.03;1.90;;;5.00;99.90;;;;;;4958774;28;89261;-33
2022/12/07 12:54:34;;;;;;;5.90;2.97;;;5.10;99.90;;;;;;4959978;28;87694;-32
2022/12/07 12:57:06;;;;;;;12.02;2.45;;;5.00;99.90;;;;;;4959628;28;90614;-33
2022/12/07 12:59:59;;;;;;;7.00;2.65;;;5.00;99.90;;;;;;4955226;28;89540;-34
2022/12/07 13:02:30;;;;;;;13.75;8.77;;;5.00;99.90;;;;;;4950676;28;89348;-33
2022/12/07 13:04:59;;;;;;;12.00;4.18;;;5.00;99.90;;;;;;4959284;28;89656;-33
2022/12/07 13:07:46;;;;;;;9.25;2.78;;;5.00;99.90;;;;;;4959202;28;89831;-31
2022/12/07 13:10:30;;;;;;;13.90;2.80;;;5.00;99.90;;;;;;4959177;28;89076;-34
2022/12/07 13:13:17;;;;;;;5.20;2.03;;;5.00;99.90;;;;;;4959542;28;89485;-31
2022/12/07 13:16:14;;;;;;;10.70;3.05;;;4.90;99.90;;;;;;4959542;28;88585;-33
2022/12/07 13:18:40;;;;;;;6.33;2.47;;;4.90;99.90;;;;;;4958595;28;90562;-30
2022/12/07 13:21:09;;;;;;;6.32;2.85;;;5.00;99.90;;;;;;4959302;28;89497;-33
2022/12/07 13:23:43;;;;;;;;;;;5.00;99.90;;;;;;4959683;28;89476;-31
2022/12/07 13:26:09;;;;;;;4.20;2.30;;;5.10;99.90;;;;;;4961302;28;88968;-31